sensor_id;sensor_type;location;lat;lon;timestamp;P1;durP1;ratioP1;P2;durP2;ratioP2
51780;SDS011;37844;57.126;24.288;2022-07-04T00:00:13;7.20;;;3.30;;
51780;SDS011;37844;57.126;24.288;2022-07-04T00:02:40;5.90;;;2.80;;
51780;SDS011;37844;57.126;24.288;2022-07-04T00:05:06;7.60;;;3.17;;
51780;SDS011;37844;57.126;24.288;2022-07-04T00:07:35;12.02;;;3.83;;
51780;SDS011;37844;57.126;24.288;2022-07-04T00:10:02;7.80;;;2.75;;
51780;SDS011;37844;57.126;24.288;2022-07-04T00:12:29;8.27;;;3.05;;
51780;SDS011;37844;57.126;24.288;2022-07-04T00:14:54;10.60;;;3.13;;
51780;SDS011;37844;57.126;24.288;2022-07-04T00:17:20;5.13;;;2.55;;
51780;SDS011;37844;57.126;24.288;2022-07-04T00:19:45;8.70;;;3.17;;
51780;SDS011;37844;57.126;24.288;2022-07-04T00:22:11;7.05;;;2.45;;
51780;SDS011;37844;57.126;24.288;2022-07-04T00:24:36;9.35;;;3.03;;
51780;SDS011;37844;57.126;24.288;2022-07-04T00:27:02;4.75;;;2.80;;
51780;SDS011;37844;57.126;24.288;2022-07-04T00:29:27;5.80;;;3.22;;
51780;SDS011;37844;57.126;24.288;2022-07-04T00:31:54;7.13;;;3.63;;
51780;SDS011;37844;57.126;24.288;2022-07-04T00:34:20;7.75;;;3.53;;
51780;SDS011;37844;57.126;24.288;2022-07-04T00:36:46;5.60;;;3.17;;
51780;SDS011;37844;57.126;24.288;2022-07-04T00:39:11;7.82;;;3.33;;
51780;SDS011;37844;57.126;24.288;2022-07-04T00:41:37;16.48;;;4.72;;
51780;SDS011;37844;57.126;24.288;2022-07-04T00:44:03;7.47;;;3.17;;
51780;SDS011;37844;57.126;24.288;2022-07-04T00:46:30;10.45;;;3.83;;
51780;SDS011;37844;57.126;24.288;2022-07-04T00:48:56;8.15;;;3.67;;
51780;SDS011;37844;57.126;24.288;2022-07-04T00:51:22;13.90;;;4.35;;
51780;SDS011;37844;57.126;24.288;2022-07-04T00:53:49;14.93;;;3.42;;
51780;SDS011;37844;57.126;24.288;2022-07-04T00:56:16;9.25;;;3.72;;
51780;SDS011;37844;57.126;24.288;2022-07-04T00:58:42;8.90;;;3.03;;
51780;SDS011;37844;57.126;24.288;2022-07-04T01:01:07;7.53;;;3.75;;
51780;SDS011;37844;57.126;24.288;2022-07-04T01:03:33;5.95;;;3.00;;
51780;SDS011;37844;57.126;24.288;2022-07-04T01:05:59;10.13;;;3.85;;
51780;SDS011;37844;57.126;24.288;2022-07-04T01:08:26;7.15;;;3.88;;
51780;SDS011;37844;57.126;24.288;2022-07-04T01:10:52;9.63;;;3.40;;
51780;SDS011;37844;57.126;24.288;2022-07-04T01:13:21;8.55;;;3.53;;
51780;SDS011;37844;57.126;24.288;2022-07-04T01:15:47;9.70;;;3.13;;
51780;SDS011;37844;57.126;24.288;2022-07-04T01:18:13;7.95;;;3.20;;
51780;SDS011;37844;57.126;24.288;2022-07-04T01:20:38;5.07;;;2.72;;
51780;SDS011;37844;57.126;24.288;2022-07-04T01:23:04;5.25;;;2.95;;
51780;SDS011;37844;57.126;24.288;2022-07-04T01:25:30;7.45;;;3.25;;
51780;SDS011;37844;57.126;24.288;2022-07-04T01:27:58;8.85;;;4.15;;
51780;SDS011;37844;57.126;24.288;2022-07-04T01:30:24;5.90;;;2.92;;
51780;SDS011;37844;57.126;24.288;2022-07-04T01:32:50;4.35;;;2.75;;
51780;SDS011;37844;57.126;24.288;2022-07-04T01:35:15;7.35;;;3.08;;
51780;SDS011;37844;57.126;24.288;2022-07-04T01:37:41;7.90;;;3.60;;
51780;SDS011;37844;57.126;24.288;2022-07-04T01:40:07;6.28;;;3.10;;
51780;SDS011;37844;57.126;24.288;2022-07-04T01:42:32;9.73;;;4.15;;
51780;SDS011;37844;57.126;24.288;2022-07-04T01:44:58;10.52;;;4.90;;
51780;SDS011;37844;57.126;24.288;2022-07-04T01:47:24;10.15;;;5.60;;
51780;SDS011;37844;57.126;24.288;2022-07-04T01:49:49;12.63;;;4.63;;
51780;SDS011;37844;57.126;24.288;2022-07-04T01:52:15;8.82;;;4.35;;
51780;SDS011;37844;57.126;24.288;2022-07-04T01:54:41;15.73;;;3.72;;
51780;SDS011;37844;57.126;24.288;2022-07-04T01:57:06;8.90;;;4.03;;
51780;SDS011;37844;57.126;24.288;2022-07-04T01:59:32;8.05;;;4.00;;
51780;SDS011;37844;57.126;24.288;2022-07-04T02:02:16;10.57;;;4.80;;
51780;SDS011;37844;57.126;24.288;2022-07-04T02:04:41;12.02;;;5.47;;
51780;SDS011;37844;57.126;24.288;2022-07-04T02:07:07;6.85;;;3.92;;
51780;SDS011;37844;57.126;24.288;2022-07-04T02:09:33;8.32;;;4.95;;
51780;SDS011;37844;57.126;24.288;2022-07-04T02:11:58;18.02;;;6.10;;
51780;SDS011;37844;57.126;24.288;2022-07-04T02:14:43;11.82;;;5.50;;
51780;SDS011;37844;57.126;24.288;2022-07-04T02:17:09;13.18;;;4.75;;
51780;SDS011;37844;57.126;24.288;2022-07-04T02:19:35;16.42;;;4.75;;
51780;SDS011;37844;57.126;24.288;2022-07-04T02:22:00;12.05;;;4.75;;
51780;SDS011;37844;57.126;24.288;2022-07-04T02:24:26;14.90;;;4.50;;
51780;SDS011;37844;57.126;24.288;2022-07-04T02:26:52;10.05;;;4.35;;
51780;SDS011;37844;57.126;24.288;2022-07-04T02:29:17;6.75;;;4.38;;
51780;SDS011;37844;57.126;24.288;2022-07-04T02:31:43;6.63;;;4.10;;
51780;SDS011;37844;57.126;24.288;2022-07-04T02:34:08;7.32;;;3.90;;
51780;SDS011;37844;57.126;24.288;2022-07-04T02:36:34;7.32;;;4.45;;
51780;SDS011;37844;57.126;24.288;2022-07-04T02:39:00;7.13;;;3.55;;
51780;SDS011;37844;57.126;24.288;2022-07-04T02:41:26;13.32;;;5.03;;
51780;SDS011;37844;57.126;24.288;2022-07-04T02:43:51;9.43;;;3.83;;
51780;SDS011;37844;57.126;24.288;2022-07-04T02:46:17;9.43;;;3.53;;
51780;SDS011;37844;57.126;24.288;2022-07-04T02:48:42;5.57;;;3.47;;
51780;SDS011;37844;57.126;24.288;2022-07-04T02:51:08;11.23;;;3.83;;
51780;SDS011;37844;57.126;24.288;2022-07-04T02:53:33;12.68;;;4.03;;
51780;SDS011;37844;57.126;24.288;2022-07-04T02:55:59;12.10;;;4.05;;
51780;SDS011;37844;57.126;24.288;2022-07-04T02:58:28;10.05;;;4.03;;
51780;SDS011;37844;57.126;24.288;2022-07-04T03:00:55;10.27;;;4.75;;
51780;SDS011;37844;57.126;24.288;2022-07-04T03:03:20;7.22;;;3.45;;
51780;SDS011;37844;57.126;24.288;2022-07-04T03:05:46;5.95;;;3.38;;
51780;SDS011;37844;57.126;24.288;2022-07-04T03:08:12;7.20;;;3.65;;
51780;SDS011;37844;57.126;24.288;2022-07-04T03:10:37;7.78;;;3.45;;
51780;SDS011;37844;57.126;24.288;2022-07-04T03:13:03;11.15;;;3.70;;
51780;SDS011;37844;57.126;24.288;2022-07-04T03:15:29;7.22;;;4.10;;
51780;SDS011;37844;57.126;24.288;2022-07-04T03:17:54;8.98;;;4.75;;
51780;SDS011;37844;57.126;24.288;2022-07-04T03:20:19;8.32;;;4.05;;
51780;SDS011;37844;57.126;24.288;2022-07-04T03:22:45;9.88;;;4.25;;
51780;SDS011;37844;57.126;24.288;2022-07-04T03:25:10;10.30;;;3.85;;
51780;SDS011;37844;57.126;24.288;2022-07-04T03:27:36;5.65;;;3.10;;
51780;SDS011;37844;57.126;24.288;2022-07-04T03:30:01;7.72;;;3.33;;
51780;SDS011;37844;57.126;24.288;2022-07-04T03:32:27;7.93;;;3.75;;
51780;SDS011;37844;57.126;24.288;2022-07-04T03:34:53;17.13;;;4.05;;
51780;SDS011;37844;57.126;24.288;2022-07-04T03:37:18;7.38;;;3.67;;
51780;SDS011;37844;57.126;24.288;2022-07-04T03:39:43;9.68;;;3.67;;
51780;SDS011;37844;57.126;24.288;2022-07-04T03:42:09;8.18;;;3.55;;
51780;SDS011;37844;57.126;24.288;2022-07-04T03:44:34;6.45;;;3.40;;
51780;SDS011;37844;57.126;24.288;2022-07-04T03:47:00;13.05;;;4.50;;
51780;SDS011;37844;57.126;24.288;2022-07-04T03:49:26;14.00;;;4.68;;
51780;SDS011;37844;57.126;24.288;2022-07-04T03:51:51;8.30;;;3.55;;
51780;SDS011;37844;57.126;24.288;2022-07-04T03:54:17;9.05;;;4.30;;
51780;SDS011;37844;57.126;24.288;2022-07-04T03:56:42;9.90;;;4.43;;
51780;SDS011;37844;57.126;24.288;2022-07-04T03:59:08;8.25;;;3.72;;
51780;SDS011;37844;57.126;24.288;2022-07-04T04:01:33;14.73;;;4.20;;
51780;SDS011;37844;57.126;24.288;2022-07-04T04:03:59;5.78;;;3.60;;
51780;SDS011;37844;57.126;24.288;2022-07-04T04:06:43;10.23;;;2.95;;
51780;SDS011;37844;57.126;24.288;2022-07-04T04:09:09;5.22;;;3.25;;
51780;SDS011;37844;57.126;24.288;2022-07-04T04:11:41;7.70;;;3.38;;
51780;SDS011;37844;57.126;24.288;2022-07-04T04:14:07;9.88;;;3.58;;
51780;SDS011;37844;57.126;24.288;2022-07-04T04:16:33;7.82;;;3.42;;
51780;SDS011;37844;57.126;24.288;2022-07-04T04:18:59;17.38;;;3.70;;
51780;SDS011;37844;57.126;24.288;2022-07-04T04:21:25;9.65;;;3.25;;
51780;SDS011;37844;57.126;24.288;2022-07-04T04:23:50;10.25;;;3.65;;
51780;SDS011;37844;57.126;24.288;2022-07-04T04:26:16;6.65;;;3.30;;
51780;SDS011;37844;57.126;24.288;2022-07-04T04:28:41;4.65;;;2.95;;
51780;SDS011;37844;57.126;24.288;2022-07-04T04:31:08;6.22;;;3.22;;
51780;SDS011;37844;57.126;24.288;2022-07-04T04:33:34;15.05;;;4.45;;
51780;SDS011;37844;57.126;24.288;2022-07-04T04:36:00;9.02;;;3.08;;
51780;SDS011;37844;57.126;24.288;2022-07-04T04:38:26;23.52;;;9.55;;
51780;SDS011;37844;57.126;24.288;2022-07-04T04:40:52;8.35;;;3.17;;
51780;SDS011;37844;57.126;24.288;2022-07-04T04:43:17;10.18;;;4.38;;
51780;SDS011;37844;57.126;24.288;2022-07-04T04:45:43;12.00;;;3.63;;
51780;SDS011;37844;57.126;24.288;2022-07-04T04:48:08;11.75;;;3.72;;
51780;SDS011;37844;57.126;24.288;2022-07-04T04:50:34;11.88;;;7.28;;
51780;SDS011;37844;57.126;24.288;2022-07-04T04:53:00;11.55;;;3.47;;
51780;SDS011;37844;57.126;24.288;2022-07-04T04:55:26;7.63;;;3.50;;
51780;SDS011;37844;57.126;24.288;2022-07-04T04:57:52;8.25;;;3.60;;
51780;SDS011;37844;57.126;24.288;2022-07-04T05:00:17;6.40;;;3.13;;
51780;SDS011;37844;57.126;24.288;2022-07-04T05:02:43;5.50;;;3.70;;
51780;SDS011;37844;57.126;24.288;2022-07-04T05:05:09;8.05;;;3.67;;
51780;SDS011;37844;57.126;24.288;2022-07-04T05:07:35;10.75;;;3.42;;
51780;SDS011;37844;57.126;24.288;2022-07-04T05:10:01;7.10;;;3.83;;
51780;SDS011;37844;57.126;24.288;2022-07-04T05:12:27;9.07;;;3.42;;
51780;SDS011;37844;57.126;24.288;2022-07-04T05:14:53;11.63;;;3.55;;
51780;SDS011;37844;57.126;24.288;2022-07-04T05:17:19;6.10;;;3.35;;
51780;SDS011;37844;57.126;24.288;2022-07-04T05:19:45;10.40;;;5.35;;
51780;SDS011;37844;57.126;24.288;2022-07-04T05:22:10;10.10;;;4.28;;
51780;SDS011;37844;57.126;24.288;2022-07-04T05:24:36;11.27;;;4.47;;
51780;SDS011;37844;57.126;24.288;2022-07-04T05:27:05;6.68;;;3.00;;
51780;SDS011;37844;57.126;24.288;2022-07-04T05:29:31;15.38;;;3.53;;
51780;SDS011;37844;57.126;24.288;2022-07-04T05:31:57;7.03;;;3.42;;
51780;SDS011;37844;57.126;24.288;2022-07-04T05:34:22;8.73;;;3.45;;
51780;SDS011;37844;57.126;24.288;2022-07-04T05:36:48;13.80;;;3.78;;
51780;SDS011;37844;57.126;24.288;2022-07-04T05:39:14;8.95;;;3.20;;
51780;SDS011;37844;57.126;24.288;2022-07-04T05:41:39;9.57;;;3.20;;
51780;SDS011;37844;57.126;24.288;2022-07-04T05:44:05;7.53;;;3.53;;
51780;SDS011;37844;57.126;24.288;2022-07-04T05:46:30;11.80;;;2.97;;
51780;SDS011;37844;57.126;24.288;2022-07-04T05:48:56;10.90;;;3.83;;
51780;SDS011;37844;57.126;24.288;2022-07-04T05:51:21;10.20;;;2.90;;
51780;SDS011;37844;57.126;24.288;2022-07-04T05:53:47;9.85;;;3.55;;
51780;SDS011;37844;57.126;24.288;2022-07-04T05:56:12;6.53;;;2.53;;
51780;SDS011;37844;57.126;24.288;2022-07-04T05:58:38;7.82;;;2.67;;
51780;SDS011;37844;57.126;24.288;2022-07-04T06:01:04;10.82;;;3.20;;
51780;SDS011;37844;57.126;24.288;2022-07-04T06:03:29;8.95;;;3.10;;
51780;SDS011;37844;57.126;24.288;2022-07-04T06:05:55;6.60;;;2.60;;
51780;SDS011;37844;57.126;24.288;2022-07-04T06:08:20;10.55;;;2.83;;
51780;SDS011;37844;57.126;24.288;2022-07-04T06:10:46;5.85;;;2.25;;
51780;SDS011;37844;57.126;24.288;2022-07-04T06:13:12;6.90;;;2.92;;
51780;SDS011;37844;57.126;24.288;2022-07-04T06:15:38;15.50;;;3.20;;
51780;SDS011;37844;57.126;24.288;2022-07-04T06:18:04;8.73;;;2.92;;
51780;SDS011;37844;57.126;24.288;2022-07-04T06:20:29;9.75;;;2.83;;
51780;SDS011;37844;57.126;24.288;2022-07-04T06:22:55;6.00;;;2.78;;
51780;SDS011;37844;57.126;24.288;2022-07-04T06:25:20;8.68;;;2.75;;
51780;SDS011;37844;57.126;24.288;2022-07-04T06:27:47;7.75;;;2.90;;
51780;SDS011;37844;57.126;24.288;2022-07-04T06:30:14;20.10;;;3.87;;
51780;SDS011;37844;57.126;24.288;2022-07-04T06:32:45;7.45;;;2.97;;
51780;SDS011;37844;57.126;24.288;2022-07-04T06:35:11;5.90;;;2.42;;
51780;SDS011;37844;57.126;24.288;2022-07-04T06:37:55;8.23;;;3.00;;
51780;SDS011;37844;57.126;24.288;2022-07-04T06:40:21;12.48;;;2.90;;
51780;SDS011;37844;57.126;24.288;2022-07-04T06:42:48;11.30;;;2.78;;
51780;SDS011;37844;57.126;24.288;2022-07-04T06:45:14;12.50;;;2.45;;
51780;SDS011;37844;57.126;24.288;2022-07-04T06:47:39;8.02;;;2.63;;
51780;SDS011;37844;57.126;24.288;2022-07-04T06:50:05;4.43;;;1.98;;
51780;SDS011;37844;57.126;24.288;2022-07-04T06:52:31;5.63;;;2.33;;
51780;SDS011;37844;57.126;24.288;2022-07-04T06:54:56;7.78;;;2.40;;
51780;SDS011;37844;57.126;24.288;2022-07-04T06:57:22;15.70;;;2.00;;
51780;SDS011;37844;57.126;24.288;2022-07-04T06:59:47;6.95;;;2.38;;
51780;SDS011;37844;57.126;24.288;2022-07-04T07:02:13;6.93;;;1.88;;
51780;SDS011;37844;57.126;24.288;2022-07-04T07:04:54;7.40;;;1.77;;
51780;SDS011;37844;57.126;24.288;2022-07-04T07:07:20;4.75;;;1.80;;
51780;SDS011;37844;57.126;24.288;2022-07-04T07:09:46;5.80;;;1.67;;
51780;SDS011;37844;57.126;24.288;2022-07-04T07:12:12;8.00;;;2.10;;
51780;SDS011;37844;57.126;24.288;2022-07-04T07:14:37;5.30;;;1.60;;
51780;SDS011;37844;57.126;24.288;2022-07-04T07:17:03;7.30;;;1.95;;
51780;SDS011;37844;57.126;24.288;2022-07-04T07:19:28;8.25;;;1.77;;
51780;SDS011;37844;57.126;24.288;2022-07-04T07:21:54;13.02;;;2.22;;
51780;SDS011;37844;57.126;24.288;2022-07-04T07:24:19;7.00;;;2.00;;
51780;SDS011;37844;57.126;24.288;2022-07-04T07:26:45;7.05;;;2.58;;
51780;SDS011;37844;57.126;24.288;2022-07-04T07:29:10;9.65;;;2.53;;
51780;SDS011;37844;57.126;24.288;2022-07-04T07:31:36;10.00;;;2.35;;
51780;SDS011;37844;57.126;24.288;2022-07-04T07:34:01;5.60;;;2.47;;
51780;SDS011;37844;57.126;24.288;2022-07-04T07:36:27;5.47;;;2.53;;
51780;SDS011;37844;57.126;24.288;2022-07-04T07:38:52;11.02;;;2.20;;
51780;SDS011;37844;57.126;24.288;2022-07-04T07:41:21;5.43;;;1.83;;
51780;SDS011;37844;57.126;24.288;2022-07-04T07:43:46;12.13;;;3.78;;
51780;SDS011;37844;57.126;24.288;2022-07-04T07:46:12;8.30;;;1.95;;
51780;SDS011;37844;57.126;24.288;2022-07-04T07:48:37;8.10;;;2.15;;
51780;SDS011;37844;57.126;24.288;2022-07-04T07:51:03;5.55;;;1.83;;
51780;SDS011;37844;57.126;24.288;2022-07-04T07:53:28;6.78;;;2.00;;
51780;SDS011;37844;57.126;24.288;2022-07-04T07:55:53;8.70;;;2.75;;
51780;SDS011;37844;57.126;24.288;2022-07-04T07:58:19;7.20;;;2.40;;
51780;SDS011;37844;57.126;24.288;2022-07-04T08:00:45;6.10;;;2.22;;
51780;SDS011;37844;57.126;24.288;2022-07-04T08:03:11;6.55;;;2.42;;
51780;SDS011;37844;57.126;24.288;2022-07-04T08:05:55;13.43;;;3.25;;
51780;SDS011;37844;57.126;24.288;2022-07-04T08:08:20;6.53;;;3.03;;
51780;SDS011;37844;57.126;24.288;2022-07-04T08:10:48;8.80;;;3.90;;
51780;SDS011;37844;57.126;24.288;2022-07-04T08:13:14;13.45;;;3.40;;
51780;SDS011;37844;57.126;24.288;2022-07-04T08:15:39;9.93;;;2.80;;
51780;SDS011;37844;57.126;24.288;2022-07-04T08:18:05;8.43;;;3.03;;
51780;SDS011;37844;57.126;24.288;2022-07-04T08:20:30;9.85;;;3.45;;
51780;SDS011;37844;57.126;24.288;2022-07-04T08:22:56;8.75;;;3.55;;
51780;SDS011;37844;57.126;24.288;2022-07-04T08:25:21;7.45;;;3.38;;
51780;SDS011;37844;57.126;24.288;2022-07-04T08:27:47;13.43;;;4.13;;
51780;SDS011;37844;57.126;24.288;2022-07-04T08:30:12;10.23;;;4.40;;
51780;SDS011;37844;57.126;24.288;2022-07-04T08:32:38;12.50;;;3.75;;
51780;SDS011;37844;57.126;24.288;2022-07-04T08:35:03;7.03;;;3.08;;
51780;SDS011;37844;57.126;24.288;2022-07-04T08:37:30;9.02;;;3.50;;
51780;SDS011;37844;57.126;24.288;2022-07-04T08:39:55;11.02;;;4.68;;
51780;SDS011;37844;57.126;24.288;2022-07-04T08:42:21;10.02;;;3.97;;
51780;SDS011;37844;57.126;24.288;2022-07-04T08:44:51;11.43;;;4.53;;
51780;SDS011;37844;57.126;24.288;2022-07-04T08:47:21;9.07;;;3.42;;
51780;SDS011;37844;57.126;24.288;2022-07-04T08:49:53;9.75;;;4.20;;
51780;SDS011;37844;57.126;24.288;2022-07-04T08:52:28;12.50;;;4.57;;
51780;SDS011;37844;57.126;24.288;2022-07-04T08:55:00;6.05;;;2.78;;
51780;SDS011;37844;57.126;24.288;2022-07-04T08:57:45;8.32;;;3.75;;
51780;SDS011;37844;57.126;24.288;2022-07-04T09:00:29;9.18;;;3.78;;
51780;SDS011;37844;57.126;24.288;2022-07-04T09:02:55;8.25;;;3.50;;
51780;SDS011;37844;57.126;24.288;2022-07-04T09:05:23;8.98;;;2.85;;
51780;SDS011;37844;57.126;24.288;2022-07-04T09:07:49;8.90;;;2.70;;
51780;SDS011;37844;57.126;24.288;2022-07-04T09:10:15;7.13;;;3.25;;
51780;SDS011;37844;57.126;24.288;2022-07-04T09:12:41;13.48;;;3.13;;
51780;SDS011;37844;57.126;24.288;2022-07-04T09:15:07;7.30;;;2.33;;
51780;SDS011;37844;57.126;24.288;2022-07-04T09:17:33;8.20;;;2.72;;
51780;SDS011;37844;57.126;24.288;2022-07-04T09:20:15;4.88;;;2.30;;
51780;SDS011;37844;57.126;24.288;2022-07-04T09:22:48;6.72;;;2.35;;
51780;SDS011;37844;57.126;24.288;2022-07-04T09:25:14;10.85;;;2.28;;
51780;SDS011;37844;57.126;24.288;2022-07-04T09:27:45;7.20;;;2.15;;
51780;SDS011;37844;57.126;24.288;2022-07-04T09:30:13;5.95;;;2.25;;
51780;SDS011;37844;57.126;24.288;2022-07-04T09:32:44;12.52;;;3.13;;
51780;SDS011;37844;57.126;24.288;2022-07-04T09:35:16;10.95;;;2.30;;
51780;SDS011;37844;57.126;24.288;2022-07-04T09:37:44;10.60;;;2.03;;
51780;SDS011;37844;57.126;24.288;2022-07-04T09:40:20;9.02;;;2.40;;
51780;SDS011;37844;57.126;24.288;2022-07-04T09:42:46;5.13;;;2.28;;
51780;SDS011;37844;57.126;24.288;2022-07-04T09:45:11;8.63;;;2.65;;
51780;SDS011;37844;57.126;24.288;2022-07-04T09:47:38;8.18;;;2.72;;
51780;SDS011;37844;57.126;24.288;2022-07-04T09:50:12;18.67;;;3.63;;
51780;SDS011;37844;57.126;24.288;2022-07-04T09:55:12;14.77;;;2.55;;
51780;SDS011;37844;57.126;24.288;2022-07-04T09:57:46;13.40;;;2.67;;
51780;SDS011;37844;57.126;24.288;2022-07-04T10:02:50;11.50;;;2.37;;
51780;SDS011;37844;57.126;24.288;2022-07-04T10:05:26;8.57;;;2.80;;
51780;SDS011;37844;57.126;24.288;2022-07-04T10:07:54;6.40;;;2.25;;
51780;SDS011;37844;57.126;24.288;2022-07-04T10:13:08;5.75;;;1.90;;
51780;SDS011;37844;57.126;24.288;2022-07-04T10:15:37;4.53;;;2.10;;
51780;SDS011;37844;57.126;24.288;2022-07-04T10:18:04;6.53;;;1.90;;
51780;SDS011;37844;57.126;24.288;2022-07-04T10:20:31;4.88;;;1.95;;
51780;SDS011;37844;57.126;24.288;2022-07-04T10:22:58;6.35;;;2.40;;
51780;SDS011;37844;57.126;24.288;2022-07-04T10:25:24;9.25;;;3.75;;
51780;SDS011;37844;57.126;24.288;2022-07-04T10:27:50;5.65;;;2.58;;
51780;SDS011;37844;57.126;24.288;2022-07-04T10:30:26;9.57;;;2.15;;
51780;SDS011;37844;57.126;24.288;2022-07-04T10:32:57;3.45;;;1.75;;
51780;SDS011;37844;57.126;24.288;2022-07-04T10:38:32;9.55;;;2.40;;
51780;SDS011;37844;57.126;24.288;2022-07-04T10:41:08;4.45;;;2.03;;
51780;SDS011;37844;57.126;24.288;2022-07-04T10:48:36;4.88;;;2.30;;
51780;SDS011;37844;57.126;24.288;2022-07-04T10:51:13;4.97;;;2.20;;
51780;SDS011;37844;57.126;24.288;2022-07-04T10:58:52;8.25;;;2.50;;
51780;SDS011;37844;57.126;24.288;2022-07-04T11:01:19;3.95;;;2.13;;
51780;SDS011;37844;57.126;24.288;2022-07-04T11:03:48;8.77;;;2.42;;
51780;SDS011;37844;57.126;24.288;2022-07-04T11:11:55;13.75;;;2.35;;
51780;SDS011;37844;57.126;24.288;2022-07-04T11:17:09;4.65;;;2.10;;
51780;SDS011;37844;57.126;24.288;2022-07-04T11:19:37;4.72;;;2.08;;
51780;SDS011;37844;57.126;24.288;2022-07-04T11:22:04;6.47;;;2.50;;
51780;SDS011;37844;57.126;24.288;2022-07-04T11:24:31;4.35;;;2.00;;
51780;SDS011;37844;57.126;24.288;2022-07-04T11:26:57;6.32;;;1.80;;
51780;SDS011;37844;57.126;24.288;2022-07-04T11:29:23;7.50;;;2.13;;
51780;SDS011;37844;57.126;24.288;2022-07-04T11:31:50;6.78;;;2.25;;
51780;SDS011;37844;57.126;24.288;2022-07-04T11:34:16;8.73;;;2.30;;
51780;SDS011;37844;57.126;24.288;2022-07-04T11:36:43;5.20;;;2.00;;
51780;SDS011;37844;57.126;24.288;2022-07-04T11:39:11;7.88;;;1.55;;
51780;SDS011;37844;57.126;24.288;2022-07-04T11:41:42;9.88;;;2.58;;
51780;SDS011;37844;57.126;24.288;2022-07-04T11:44:27;4.70;;;1.90;;
51780;SDS011;37844;57.126;24.288;2022-07-04T11:47:13;6.80;;;2.30;;
51780;SDS011;37844;57.126;24.288;2022-07-04T11:52:13;12.50;;;2.10;;
51780;SDS011;37844;57.126;24.288;2022-07-04T11:54:40;6.50;;;2.30;;
51780;SDS011;37844;57.126;24.288;2022-07-04T11:57:13;13.88;;;2.42;;
51780;SDS011;37844;57.126;24.288;2022-07-04T11:59:39;12.50;;;2.13;;
51780;SDS011;37844;57.126;24.288;2022-07-04T12:02:12;4.13;;;1.90;;
51780;SDS011;37844;57.126;24.288;2022-07-04T12:04:39;3.53;;;1.73;;
51780;SDS011;37844;57.126;24.288;2022-07-04T12:07:16;9.18;;;2.85;;
51780;SDS011;37844;57.126;24.288;2022-07-04T12:09:44;5.25;;;2.20;;
51780;SDS011;37844;57.126;24.288;2022-07-04T12:12:11;8.88;;;2.35;;
51780;SDS011;37844;57.126;24.288;2022-07-04T12:14:37;3.72;;;1.80;;
51780;SDS011;37844;57.126;24.288;2022-07-04T12:17:19;13.73;;;2.75;;
51780;SDS011;37844;57.126;24.288;2022-07-04T12:22:28;12.95;;;2.33;;
51780;SDS011;37844;57.126;24.288;2022-07-04T12:25:01;5.30;;;1.70;;
51780;SDS011;37844;57.126;24.288;2022-07-04T12:27:29;5.25;;;1.80;;
51780;SDS011;37844;57.126;24.288;2022-07-04T12:29:56;6.18;;;2.05;;
51780;SDS011;37844;57.126;24.288;2022-07-04T12:32:42;8.25;;;1.88;;
51780;SDS011;37844;57.126;24.288;2022-07-04T12:35:09;7.90;;;2.10;;
51780;SDS011;37844;57.126;24.288;2022-07-04T12:37:35;9.20;;;3.25;;
51780;SDS011;37844;57.126;24.288;2022-07-04T12:40:07;7.93;;;2.30;;
51780;SDS011;37844;57.126;24.288;2022-07-04T12:42:33;11.88;;;2.30;;
51780;SDS011;37844;57.126;24.288;2022-07-04T12:45:05;4.13;;;1.52;;
51780;SDS011;37844;57.126;24.288;2022-07-04T12:47:31;3.72;;;1.75;;
51780;SDS011;37844;57.126;24.288;2022-07-04T12:49:57;8.77;;;2.83;;
51780;SDS011;37844;57.126;24.288;2022-07-04T12:52:24;8.00;;;3.25;;
51780;SDS011;37844;57.126;24.288;2022-07-04T12:57:32;6.10;;;3.28;;
51780;SDS011;37844;57.126;24.288;2022-07-04T12:59:57;7.68;;;2.88;;
51780;SDS011;37844;57.126;24.288;2022-07-04T13:02:23;10.57;;;2.45;;
51780;SDS011;37844;57.126;24.288;2022-07-04T13:04:48;4.82;;;1.88;;
51780;SDS011;37844;57.126;24.288;2022-07-04T13:07:14;6.15;;;2.55;;
51780;SDS011;37844;57.126;24.288;2022-07-04T13:09:42;6.85;;;2.20;;
51780;SDS011;37844;57.126;24.288;2022-07-04T13:12:08;5.63;;;2.03;;
51780;SDS011;37844;57.126;24.288;2022-07-04T13:14:54;7.65;;;2.28;;
51780;SDS011;37844;57.126;24.288;2022-07-04T13:17:21;9.30;;;2.17;;
51780;SDS011;37844;57.126;24.288;2022-07-04T13:19:47;12.25;;;2.17;;
51780;SDS011;37844;57.126;24.288;2022-07-04T13:22:12;5.30;;;2.22;;
51780;SDS011;37844;57.126;24.288;2022-07-04T13:24:38;6.35;;;2.10;;
51780;SDS011;37844;57.126;24.288;2022-07-04T13:27:03;7.88;;;2.85;;
51780;SDS011;37844;57.126;24.288;2022-07-04T13:29:30;10.18;;;3.92;;
51780;SDS011;37844;57.126;24.288;2022-07-04T13:31:55;12.07;;;2.78;;
51780;SDS011;37844;57.126;24.288;2022-07-04T13:34:21;8.82;;;1.92;;
51780;SDS011;37844;57.126;24.288;2022-07-04T13:36:46;7.55;;;2.30;;
51780;SDS011;37844;57.126;24.288;2022-07-04T13:39:12;8.13;;;2.28;;
51780;SDS011;37844;57.126;24.288;2022-07-04T13:41:38;3.35;;;1.63;;
51780;SDS011;37844;57.126;24.288;2022-07-04T13:44:05;6.32;;;2.35;;
51780;SDS011;37844;57.126;24.288;2022-07-04T13:46:31;8.85;;;2.80;;
51780;SDS011;37844;57.126;24.288;2022-07-04T13:49:00;6.70;;;2.42;;
51780;SDS011;37844;57.126;24.288;2022-07-04T13:51:27;8.20;;;3.22;;
51780;SDS011;37844;57.126;24.288;2022-07-04T13:53:52;8.68;;;1.95;;
51780;SDS011;37844;57.126;24.288;2022-07-04T13:56:18;5.75;;;2.13;;
51780;SDS011;37844;57.126;24.288;2022-07-04T13:58:44;5.72;;;1.92;;
51780;SDS011;37844;57.126;24.288;2022-07-04T14:01:10;7.35;;;2.30;;
51780;SDS011;37844;57.126;24.288;2022-07-04T14:03:36;3.35;;;1.98;;
51780;SDS011;37844;57.126;24.288;2022-07-04T14:06:02;8.40;;;2.40;;
51780;SDS011;37844;57.126;24.288;2022-07-04T14:08:27;4.65;;;1.80;;
51780;SDS011;37844;57.126;24.288;2022-07-04T14:10:53;7.05;;;2.45;;
51780;SDS011;37844;57.126;24.288;2022-07-04T14:13:18;7.85;;;2.53;;
51780;SDS011;37844;57.126;24.288;2022-07-04T14:15:44;5.15;;;1.98;;
51780;SDS011;37844;57.126;24.288;2022-07-04T14:18:09;13.18;;;3.10;;
51780;SDS011;37844;57.126;24.288;2022-07-04T14:20:39;7.25;;;2.28;;
51780;SDS011;37844;57.126;24.288;2022-07-04T14:23:05;7.72;;;2.72;;
51780;SDS011;37844;57.126;24.288;2022-07-04T14:25:31;7.20;;;2.65;;
51780;SDS011;37844;57.126;24.288;2022-07-04T14:27:56;4.93;;;2.00;;
51780;SDS011;37844;57.126;24.288;2022-07-04T14:30:22;6.43;;;2.00;;
51780;SDS011;37844;57.126;24.288;2022-07-04T14:32:47;5.70;;;2.50;;
51780;SDS011;37844;57.126;24.288;2022-07-04T14:35:13;10.95;;;3.13;;
51780;SDS011;37844;57.126;24.288;2022-07-04T14:37:38;7.18;;;3.40;;
51780;SDS011;37844;57.126;24.288;2022-07-04T14:40:04;10.60;;;3.65;;
51780;SDS011;37844;57.126;24.288;2022-07-04T14:42:30;5.35;;;2.67;;
51780;SDS011;37844;57.126;24.288;2022-07-04T14:44:56;3.65;;;1.92;;
51780;SDS011;37844;57.126;24.288;2022-07-04T14:47:22;12.07;;;2.58;;
51780;SDS011;37844;57.126;24.288;2022-07-04T14:49:47;3.67;;;2.03;;
51780;SDS011;37844;57.126;24.288;2022-07-04T14:52:13;5.93;;;2.38;;
51780;SDS011;37844;57.126;24.288;2022-07-04T14:54:38;5.50;;;2.05;;
51780;SDS011;37844;57.126;24.288;2022-07-04T14:57:04;7.63;;;1.80;;
51780;SDS011;37844;57.126;24.288;2022-07-04T14:59:32;5.88;;;1.80;;
51780;SDS011;37844;57.126;24.288;2022-07-04T15:02:01;5.53;;;2.08;;
51780;SDS011;37844;57.126;24.288;2022-07-04T15:04:27;8.00;;;2.67;;
51780;SDS011;37844;57.126;24.288;2022-07-04T15:06:52;5.40;;;2.17;;